sensor_id;sensor_type;location;lat;lon;timestamp;P1;durP1;ratioP1;P2;durP2;ratioP2
28627;SDS011;15815;46.760;19.604;2022-09-09T00:06:43;10.93;;;5.45;;
28627;SDS011;15815;46.760;19.604;2022-09-09T00:09:12;8.20;;;5.25;;
28627;SDS011;15815;46.760;19.604;2022-09-09T00:14:03;7.87;;;6.03;;
28627;SDS011;15815;46.760;19.604;2022-09-09T00:16:38;11.45;;;5.57;;
28627;SDS011;15815;46.760;19.604;2022-09-09T00:19:09;11.20;;;6.80;;
28627;SDS011;15815;46.760;19.604;2022-09-09T00:22:29;8.55;;;5.40;;
28627;SDS011;15815;46.760;19.604;2022-09-09T00:24:42;10.85;;;6.03;;
28627;SDS011;15815;46.760;19.604;2022-09-09T00:27:51;9.18;;;5.78;;
28627;SDS011;15815;46.760;19.604;2022-09-09T00:30:20;10.15;;;5.50;;
28627;SDS011;15815;46.760;19.604;2022-09-09T00:32:49;9.07;;;5.82;;
28627;SDS011;15815;46.760;19.604;2022-09-09T00:35:27;9.43;;;6.95;;
28627;SDS011;15815;46.760;19.604;2022-09-09T00:37:56;11.90;;;6.50;;
28627;SDS011;15815;46.760;19.604;2022-09-09T00:40:28;7.63;;;6.47;;
28627;SDS011;15815;46.760;19.604;2022-09-09T00:43:14;10.63;;;7.10;;
28627;SDS011;15815;46.760;19.604;2022-09-09T00:51:45;9.50;;;7.38;;
28627;SDS011;15815;46.760;19.604;2022-09-09T00:57:25;11.52;;;6.70;;
28627;SDS011;15815;46.760;19.604;2022-09-09T01:05:45;9.00;;;6.28;;
28627;SDS011;15815;46.760;19.604;2022-09-09T01:11:07;7.97;;;6.50;;
28627;SDS011;15815;46.760;19.604;2022-09-09T01:13:40;8.10;;;6.15;;
28627;SDS011;15815;46.760;19.604;2022-09-09T01:16:07;11.90;;;6.43;;
28627;SDS011;15815;46.760;19.604;2022-09-09T01:18:37;7.47;;;5.72;;
28627;SDS011;15815;46.760;19.604;2022-09-09T01:26:52;13.68;;;5.38;;
28627;SDS011;15815;46.760;19.604;2022-09-09T01:29:20;10.57;;;5.55;;
28627;SDS011;15815;46.760;19.604;2022-09-09T01:31:56;8.68;;;5.88;;
28627;SDS011;15815;46.760;19.604;2022-09-09T01:34:28;6.40;;;4.97;;
28627;SDS011;15815;46.760;19.604;2022-09-09T01:37:08;6.13;;;5.20;;
28627;SDS011;15815;46.760;19.604;2022-09-09T01:39:36;8.07;;;5.22;;
28627;SDS011;15815;46.760;19.604;2022-09-09T01:42:04;9.02;;;5.28;;
28627;SDS011;15815;46.760;19.604;2022-09-09T01:44:32;9.57;;;5.25;;
28627;SDS011;15815;46.760;19.604;2022-09-09T01:47:00;5.80;;;4.47;;
28627;SDS011;15815;46.760;19.604;2022-09-09T01:49:27;6.63;;;5.40;;
28627;SDS011;15815;46.760;19.604;2022-09-09T01:51:53;7.93;;;4.82;;
28627;SDS011;15815;46.760;19.604;2022-09-09T01:54:20;5.97;;;4.82;;
28627;SDS011;15815;46.760;19.604;2022-09-09T02:00:08;6.60;;;4.72;;
28627;SDS011;15815;46.760;19.604;2022-09-09T02:02:39;5.55;;;4.90;;
28627;SDS011;15815;46.760;19.604;2022-09-09T02:08:00;4.90;;;4.30;;
28627;SDS011;15815;46.760;19.604;2022-09-09T02:10:40;5.60;;;4.28;;
28627;SDS011;15815;46.760;19.604;2022-09-09T02:13:14;5.70;;;4.53;;
28627;SDS011;15815;46.760;19.604;2022-09-09T02:15:52;6.15;;;4.20;;
28627;SDS011;15815;46.760;19.604;2022-09-09T02:18:42;5.57;;;4.20;;
28627;SDS011;15815;46.760;19.604;2022-09-09T02:21:14;8.13;;;4.50;;
28627;SDS011;15815;46.760;19.604;2022-09-09T02:23:42;5.60;;;4.20;;
28627;SDS011;15815;46.760;19.604;2022-09-09T02:26:11;8.30;;;4.28;;
28627;SDS011;15815;46.760;19.604;2022-09-09T02:28:39;6.68;;;4.57;;
28627;SDS011;15815;46.760;19.604;2022-09-09T02:31:07;9.88;;;4.97;;
28627;SDS011;15815;46.760;19.604;2022-09-09T02:33:33;5.60;;;4.57;;
28627;SDS011;15815;46.760;19.604;2022-09-09T02:36:03;4.57;;;4.10;;
28627;SDS011;15815;46.760;19.604;2022-09-09T02:38:33;4.93;;;4.05;;
28627;SDS011;15815;46.760;19.604;2022-09-09T02:41:02;7.78;;;4.00;;
28627;SDS011;15815;46.760;19.604;2022-09-09T02:43:32;4.20;;;3.55;;
28627;SDS011;15815;46.760;19.604;2022-09-09T02:46:35;4.70;;;3.28;;
28627;SDS011;15815;46.760;19.604;2022-09-09T02:49:09;6.18;;;4.30;;
28627;SDS011;15815;46.760;19.604;2022-09-09T02:54:31;6.75;;;3.55;;
28627;SDS011;15815;46.760;19.604;2022-09-09T02:57:10;4.97;;;3.22;;
28627;SDS011;15815;46.760;19.604;2022-09-09T02:59:38;5.80;;;3.60;;
28627;SDS011;15815;46.760;19.604;2022-09-09T03:02:05;10.18;;;3.70;;
28627;SDS011;15815;46.760;19.604;2022-09-09T03:04:30;4.47;;;3.60;;
28627;SDS011;15815;46.760;19.604;2022-09-09T03:06:56;5.25;;;3.90;;
28627;SDS011;15815;46.760;19.604;2022-09-09T03:09:23;8.25;;;4.30;;
28627;SDS011;15815;46.760;19.604;2022-09-09T03:11:48;5.30;;;3.40;;
28627;SDS011;15815;46.760;19.604;2022-09-09T03:14:14;4.95;;;3.45;;
28627;SDS011;15815;46.760;19.604;2022-09-09T03:16:40;9.50;;;4.57;;
28627;SDS011;15815;46.760;19.604;2022-09-09T03:19:07;4.40;;;3.50;;
28627;SDS011;15815;46.760;19.604;2022-09-09T03:21:32;7.85;;;4.40;;
28627;SDS011;15815;46.760;19.604;2022-09-09T03:23:57;4.40;;;3.63;;
28627;SDS011;15815;46.760;19.604;2022-09-09T03:26:23;5.32;;;3.30;;
28627;SDS011;15815;46.760;19.604;2022-09-09T03:28:48;6.00;;;3.47;;
28627;SDS011;15815;46.760;19.604;2022-09-09T03:31:16;5.20;;;4.47;;
28627;SDS011;15815;46.760;19.604;2022-09-09T03:33:42;3.90;;;3.08;;
28627;SDS011;15815;46.760;19.604;2022-09-09T03:36:07;6.20;;;3.95;;
28627;SDS011;15815;46.760;19.604;2022-09-09T03:38:33;4.00;;;3.50;;
28627;SDS011;15815;46.760;19.604;2022-09-09T03:40:58;6.55;;;3.72;;
28627;SDS011;15815;46.760;19.604;2022-09-09T03:43:25;6.80;;;4.05;;
28627;SDS011;15815;46.760;19.604;2022-09-09T03:45:51;7.90;;;4.00;;
28627;SDS011;15815;46.760;19.604;2022-09-09T03:48:17;5.35;;;3.55;;
28627;SDS011;15815;46.760;19.604;2022-09-09T03:50:44;5.50;;;3.85;;
28627;SDS011;15815;46.760;19.604;2022-09-09T03:53:14;6.93;;;4.05;;
28627;SDS011;15815;46.760;19.604;2022-09-09T03:55:47;6.05;;;4.40;;
28627;SDS011;15815;46.760;19.604;2022-09-09T03:58:19;7.07;;;3.97;;
28627;SDS011;15815;46.760;19.604;2022-09-09T04:00:55;4.72;;;4.13;;
28627;SDS011;15815;46.760;19.604;2022-09-09T04:03:22;5.10;;;3.53;;
28627;SDS011;15815;46.760;19.604;2022-09-09T04:05:49;4.05;;;3.47;;
28627;SDS011;15815;46.760;19.604;2022-09-09T04:08:18;7.65;;;4.40;;
28627;SDS011;15815;46.760;19.604;2022-09-09T04:10:45;5.10;;;4.10;;
28627;SDS011;15815;46.760;19.604;2022-09-09T04:13:12;7.85;;;3.65;;
28627;SDS011;15815;46.760;19.604;2022-09-09T04:15:40;6.18;;;3.90;;
28627;SDS011;15815;46.760;19.604;2022-09-09T04:18:05;5.38;;;4.15;;
28627;SDS011;15815;46.760;19.604;2022-09-09T04:20:31;7.00;;;4.32;;
28627;SDS011;15815;46.760;19.604;2022-09-09T04:22:57;4.82;;;3.63;;
28627;SDS011;15815;46.760;19.604;2022-09-09T04:25:23;4.93;;;4.20;;
28627;SDS011;15815;46.760;19.604;2022-09-09T04:27:52;4.75;;;4.25;;
28627;SDS011;15815;46.760;19.604;2022-09-09T04:30:22;5.32;;;4.15;;
28627;SDS011;15815;46.760;19.604;2022-09-09T04:32:48;5.97;;;3.85;;
28627;SDS011;15815;46.760;19.604;2022-09-09T04:35:13;6.72;;;4.47;;
28627;SDS011;15815;46.760;19.604;2022-09-09T04:37:38;9.88;;;4.53;;
28627;SDS011;15815;46.760;19.604;2022-09-09T04:40:04;5.72;;;4.53;;
28627;SDS011;15815;46.760;19.604;2022-09-09T04:42:34;6.28;;;4.43;;
28627;SDS011;15815;46.760;19.604;2022-09-09T04:45:03;6.30;;;4.63;;
28627;SDS011;15815;46.760;19.604;2022-09-09T04:47:29;5.82;;;4.75;;
28627;SDS011;15815;46.760;19.604;2022-09-09T04:49:54;6.20;;;5.17;;
28627;SDS011;15815;46.760;19.604;2022-09-09T04:52:20;11.07;;;5.20;;
28627;SDS011;15815;46.760;19.604;2022-09-09T04:54:46;9.90;;;4.38;;
28627;SDS011;15815;46.760;19.604;2022-09-09T04:57:11;7.13;;;4.60;;
28627;SDS011;15815;46.760;19.604;2022-09-09T04:59:37;5.68;;;4.15;;
28627;SDS011;15815;46.760;19.604;2022-09-09T05:02:02;11.88;;;5.40;;
28627;SDS011;15815;46.760;19.604;2022-09-09T05:04:28;6.63;;;4.55;;
28627;SDS011;15815;46.760;19.604;2022-09-09T05:06:54;6.13;;;4.50;;
28627;SDS011;15815;46.760;19.604;2022-09-09T05:09:20;6.18;;;4.70;;
28627;SDS011;15815;46.760;19.604;2022-09-09T05:11:45;6.15;;;4.47;;
28627;SDS011;15815;46.760;19.604;2022-09-09T05:14:11;11.32;;;4.85;;
28627;SDS011;15815;46.760;19.604;2022-09-09T05:16:37;4.25;;;3.83;;
28627;SDS011;15815;46.760;19.604;2022-09-09T05:19:02;5.57;;;4.15;;
28627;SDS011;15815;46.760;19.604;2022-09-09T05:21:28;9.55;;;3.90;;
28627;SDS011;15815;46.760;19.604;2022-09-09T05:23:54;6.97;;;3.90;;
28627;SDS011;15815;46.760;19.604;2022-09-09T05:26:20;4.40;;;3.80;;
28627;SDS011;15815;46.760;19.604;2022-09-09T05:28:47;5.43;;;3.83;;
28627;SDS011;15815;46.760;19.604;2022-09-09T05:31:12;7.85;;;3.50;;
28627;SDS011;15815;46.760;19.604;2022-09-09T05:33:40;5.30;;;4.00;;
28627;SDS011;15815;46.760;19.604;2022-09-09T05:36:08;6.07;;;4.10;;
28627;SDS011;15815;46.760;19.604;2022-09-09T05:38:37;6.13;;;4.40;;
28627;SDS011;15815;46.760;19.604;2022-09-09T05:41:03;7.72;;;4.47;;
28627;SDS011;15815;46.760;19.604;2022-09-09T05:43:28;5.93;;;4.18;;
28627;SDS011;15815;46.760;19.604;2022-09-09T05:46:01;6.93;;;4.20;;
28627;SDS011;15815;46.760;19.604;2022-09-09T05:48:29;4.28;;;3.88;;
28627;SDS011;15815;46.760;19.604;2022-09-09T05:50:59;5.45;;;4.15;;
28627;SDS011;15815;46.760;19.604;2022-09-09T05:53:26;6.85;;;3.97;;
28627;SDS011;15815;46.760;19.604;2022-09-09T05:56:02;10.20;;;4.22;;
28627;SDS011;15815;46.760;19.604;2022-09-09T05:58:32;5.53;;;4.20;;
28627;SDS011;15815;46.760;19.604;2022-09-09T06:01:03;5.88;;;4.20;;
28627;SDS011;15815;46.760;19.604;2022-09-09T06:03:28;4.60;;;3.83;;
28627;SDS011;15815;46.760;19.604;2022-09-09T06:05:57;8.30;;;3.38;;
28627;SDS011;15815;46.760;19.604;2022-09-09T06:08:27;3.40;;;2.90;;
28627;SDS011;15815;46.760;19.604;2022-09-09T06:10:52;7.25;;;3.58;;
28627;SDS011;15815;46.760;19.604;2022-09-09T06:13:18;4.38;;;3.10;;
28627;SDS011;15815;46.760;19.604;2022-09-09T06:15:50;7.22;;;3.13;;
28627;SDS011;15815;46.760;19.604;2022-09-09T06:18:17;4.35;;;3.47;;
28627;SDS011;15815;46.760;19.604;2022-09-09T06:20:52;4.28;;;3.22;;
28627;SDS011;15815;46.760;19.604;2022-09-09T06:23:18;4.65;;;3.30;;
28627;SDS011;15815;46.760;19.604;2022-09-09T06:25:45;4.93;;;3.40;;
28627;SDS011;15815;46.760;19.604;2022-09-09T06:28:10;6.82;;;2.88;;
28627;SDS011;15815;46.760;19.604;2022-09-09T06:30:36;3.88;;;2.50;;
28627;SDS011;15815;46.760;19.604;2022-09-09T06:33:01;6.05;;;2.53;;
28627;SDS011;15815;46.760;19.604;2022-09-09T06:35:27;7.50;;;2.03;;
28627;SDS011;15815;46.760;19.604;2022-09-09T06:37:53;6.07;;;2.30;;
28627;SDS011;15815;46.760;19.604;2022-09-09T06:40:18;5.87;;;2.03;;
28627;SDS011;15815;46.760;19.604;2022-09-09T06:42:44;7.07;;;2.23;;
28627;SDS011;15815;46.760;19.604;2022-09-09T06:45:09;2.42;;;1.90;;
28627;SDS011;15815;46.760;19.604;2022-09-09T06:47:35;3.20;;;1.95;;
28627;SDS011;15815;46.760;19.604;2022-09-09T06:50:01;3.78;;;1.65;;
28627;SDS011;15815;46.760;19.604;2022-09-09T06:52:26;3.03;;;1.90;;
28627;SDS011;15815;46.760;19.604;2022-09-09T06:54:52;2.85;;;1.52;;
28627;SDS011;15815;46.760;19.604;2022-09-09T06:57:18;1.98;;;1.38;;
28627;SDS011;15815;46.760;19.604;2022-09-09T06:59:43;3.00;;;1.27;;
28627;SDS011;15815;46.760;19.604;2022-09-09T07:02:09;3.47;;;1.10;;
28627;SDS011;15815;46.760;19.604;2022-09-09T07:04:34;1.57;;;1.30;;
28627;SDS011;15815;46.760;19.604;2022-09-09T07:07:00;1.93;;;1.20;;
28627;SDS011;15815;46.760;19.604;2022-09-09T07:09:25;4.72;;;1.40;;
28627;SDS011;15815;46.760;19.604;2022-09-09T07:11:52;2.60;;;1.20;;
28627;SDS011;15815;46.760;19.604;2022-09-09T07:14:18;1.30;;;1.10;;
28627;SDS011;15815;46.760;19.604;2022-09-09T07:16:44;5.28;;;1.25;;
28627;SDS011;15815;46.760;19.604;2022-09-09T07:19:10;3.25;;;0.88;;
28627;SDS011;15815;46.760;19.604;2022-09-09T07:21:37;4.03;;;0.80;;
28627;SDS011;15815;46.760;19.604;2022-09-09T07:24:03;3.03;;;1.20;;
28627;SDS011;15815;46.760;19.604;2022-09-09T07:26:32;3.17;;;0.82;;
28627;SDS011;15815;46.760;19.604;2022-09-09T07:28:58;2.50;;;0.70;;
28627;SDS011;15815;46.760;19.604;2022-09-09T07:31:28;3.55;;;0.68;;
28627;SDS011;15815;46.760;19.604;2022-09-09T07:33:58;1.77;;;0.70;;
28627;SDS011;15815;46.760;19.604;2022-09-09T07:36:25;1.48;;;0.50;;
28627;SDS011;15815;46.760;19.604;2022-09-09T07:38:54;0.47;;;0.47;;
28627;SDS011;15815;46.760;19.604;2022-09-09T07:41:23;1.35;;;0.60;;
28627;SDS011;15815;46.760;19.604;2022-09-09T07:43:50;2.05;;;0.60;;
28627;SDS011;15815;46.760;19.604;2022-09-09T07:46:19;2.47;;;0.63;;
28627;SDS011;15815;46.760;19.604;2022-09-09T07:48:46;2.33;;;0.80;;
28627;SDS011;15815;46.760;19.604;2022-09-09T07:51:17;2.92;;;0.57;;
28627;SDS011;15815;46.760;19.604;2022-09-09T07:53:47;0.70;;;0.50;;
28627;SDS011;15815;46.760;19.604;2022-09-09T07:56:16;1.10;;;0.70;;
28627;SDS011;15815;46.760;19.604;2022-09-09T07:58:44;0.93;;;0.65;;
28627;SDS011;15815;46.760;19.604;2022-09-09T08:01:12;3.15;;;0.75;;
28627;SDS011;15815;46.760;19.604;2022-09-09T08:03:39;3.00;;;0.55;;
28627;SDS011;15815;46.760;19.604;2022-09-09T08:06:06;1.80;;;0.60;;
28627;SDS011;15815;46.760;19.604;2022-09-09T08:08:33;6.93;;;0.68;;
28627;SDS011;15815;46.760;19.604;2022-09-09T08:11:07;2.53;;;0.43;;
28627;SDS011;15815;46.760;19.604;2022-09-09T08:13:42;2.50;;;0.60;;
28627;SDS011;15815;46.760;19.604;2022-09-09T08:16:09;3.33;;;0.80;;
28627;SDS011;15815;46.760;19.604;2022-09-09T08:18:37;3.45;;;0.90;;
28627;SDS011;15815;46.760;19.604;2022-09-09T08:21:09;2.90;;;1.02;;
28627;SDS011;15815;46.760;19.604;2022-09-09T08:23:40;2.03;;;0.70;;
28627;SDS011;15815;46.760;19.604;2022-09-09T08:26:11;2.78;;;0.98;;
28627;SDS011;15815;46.760;19.604;2022-09-09T08:28:38;1.88;;;1.00;;
28627;SDS011;15815;46.760;19.604;2022-09-09T08:31:09;1.38;;;0.95;;
28627;SDS011;15815;46.760;19.604;2022-09-09T08:33:37;2.42;;;0.90;;
28627;SDS011;15815;46.760;19.604;2022-09-09T08:36:04;4.07;;;0.93;;
28627;SDS011;15815;46.760;19.604;2022-09-09T08:38:31;1.38;;;0.98;;
28627;SDS011;15815;46.760;19.604;2022-09-09T08:46:42;0.68;;;0.57;;
28627;SDS011;15815;46.760;19.604;2022-09-09T08:52:01;0.70;;;0.70;;
28627;SDS011;15815;46.760;19.604;2022-09-09T08:54:32;2.63;;;0.60;;
28627;SDS011;15815;46.760;19.604;2022-09-09T08:57:00;2.22;;;0.73;;
28627;SDS011;15815;46.760;19.604;2022-09-09T08:59:25;0.85;;;0.60;;
28627;SDS011;15815;46.760;19.604;2022-09-09T09:01:57;0.95;;;0.52;;
28627;SDS011;15815;46.760;19.604;2022-09-09T09:07:21;3.72;;;0.57;;
28627;SDS011;15815;46.760;19.604;2022-09-09T09:12:35;0.80;;;0.52;;
28627;SDS011;15815;46.760;19.604;2022-09-09T09:15:26;3.88;;;0.50;;
28627;SDS011;15815;46.760;19.604;2022-09-09T09:17:55;0.88;;;0.43;;
28627;SDS011;15815;46.760;19.604;2022-09-09T09:20:23;1.65;;;0.60;;
28627;SDS011;15815;46.760;19.604;2022-09-09T09:22:56;2.00;;;0.88;;
28627;SDS011;15815;46.760;19.604;2022-09-09T09:25:29;2.20;;;0.65;;
28627;SDS011;15815;46.760;19.604;2022-09-09T09:30:40;0.68;;;0.60;;
28627;SDS011;15815;46.760;19.604;2022-09-09T09:33:24;2.40;;;0.70;;
28627;SDS011;15815;46.760;19.604;2022-09-09T09:36:11;3.10;;;0.40;;
28627;SDS011;15815;46.760;19.604;2022-09-09T09:38:40;0.68;;;0.47;;
28627;SDS011;15815;46.760;19.604;2022-09-09T09:41:17;2.30;;;0.60;;
28627;SDS011;15815;46.760;19.604;2022-09-09T09:43:54;1.48;;;0.82;;
28627;SDS011;15815;46.760;19.604;2022-09-09T09:46:21;2.45;;;0.55;;
28627;SDS011;15815;46.760;19.604;2022-09-09T09:49:01;1.35;;;0.30;;
28627;SDS011;15815;46.760;19.604;2022-09-09T09:51:28;0.63;;;0.50;;
28627;SDS011;15815;46.760;19.604;2022-09-09T09:54:03;1.02;;;0.52;;
28627;SDS011;15815;46.760;19.604;2022-09-09T09:56:43;0.60;;;0.50;;
28627;SDS011;15815;46.760;19.604;2022-09-09T09:59:23;1.70;;;0.80;;
28627;SDS011;15815;46.760;19.604;2022-09-09T10:04:45;0.52;;;0.45;;
28627;SDS011;15815;46.760;19.604;2022-09-09T10:07:12;3.08;;;1.30;;
28627;SDS011;15815;46.760;19.604;2022-09-09T10:15:02;1.98;;;0.82;;
28627;SDS011;15815;46.760;19.604;2022-09-09T10:28:35;3.10;;;0.63;;
28627;SDS011;15815;46.760;19.604;2022-09-09T10:36:46;2.03;;;0.85;;
28627;SDS011;15815;46.760;19.604;2022-09-09T10:39:31;3.03;;;0.82;;
28627;SDS011;15815;46.760;19.604;2022-09-09T10:47:44;1.08;;;0.50;;
28627;SDS011;15815;46.760;19.604;2022-09-09T10:53:08;1.15;;;0.50;;
28627;SDS011;15815;46.760;19.604;2022-09-09T10:55:59;1.33;;;0.40;;
28627;SDS011;15815;46.760;19.604;2022-09-09T11:01:12;0.80;;;0.60;;
28627;SDS011;15815;46.760;19.604;2022-09-09T11:03:43;4.28;;;0.70;;
28627;SDS011;15815;46.760;19.604;2022-09-09T11:06:14;1.08;;;0.52;;
28627;SDS011;15815;46.760;19.604;2022-09-09T11:08:44;3.40;;;0.50;;
28627;SDS011;15815;46.760;19.604;2022-09-09T11:11:21;0.82;;;0.50;;
28627;SDS011;15815;46.760;19.604;2022-09-09T11:14:00;0.50;;;0.38;;
28627;SDS011;15815;46.760;19.604;2022-09-09T11:16:34;1.30;;;0.40;;
28627;SDS011;15815;46.760;19.604;2022-09-09T11:19:46;0.50;;;0.50;;
28627;SDS011;15815;46.760;19.604;2022-09-09T11:21:51;3.63;;;0.80;;
28627;SDS011;15815;46.760;19.604;2022-09-09T11:27:06;2.15;;;0.65;;
28627;SDS011;15815;46.760;19.604;2022-09-09T11:40:22;3.55;;;0.60;;
28627;SDS011;15815;46.760;19.604;2022-09-09T11:42:48;6.10;;;0.52;;
28627;SDS011;15815;46.760;19.604;2022-09-09T11:45:26;1.83;;;0.47;;
28627;SDS011;15815;46.760;19.604;2022-09-09T11:47:58;1.67;;;0.40;;
28627;SDS011;15815;46.760;19.604;2022-09-09T11:50:29;0.35;;;0.35;;
28627;SDS011;15815;46.760;19.604;2022-09-09T11:55:45;0.30;;;0.28;;
28627;SDS011;15815;46.760;19.604;2022-09-09T12:00:37;1.13;;;0.30;;
28627;SDS011;15815;46.760;19.604;2022-09-09T12:03:08;0.93;;;0.38;;
28627;SDS011;15815;46.760;19.604;2022-09-09T12:05:57;1.70;;;0.40;;
28627;SDS011;15815;46.760;19.604;2022-09-09T12:08:27;3.80;;;0.50;;
28627;SDS011;15815;46.760;19.604;2022-09-09T12:10:55;0.20;;;0.20;;
28627;SDS011;15815;46.760;19.604;2022-09-09T12:13:23;0.68;;;0.43;;
28627;SDS011;15815;46.760;19.604;2022-09-09T12:18:22;0.57;;;0.32;;
28627;SDS011;15815;46.760;19.604;2022-09-09T12:21:36;0.60;;;0.40;;
28627;SDS011;15815;46.760;19.604;2022-09-09T12:23:52;0.57;;;0.30;;
28627;SDS011;15815;46.760;19.604;2022-09-09T12:26:34;1.58;;;0.40;;
28627;SDS011;15815;46.760;19.604;2022-09-09T12:29:15;0.75;;;0.30;;
28627;SDS011;15815;46.760;19.604;2022-09-09T12:32:33;0.77;;;0.50;;
28627;SDS011;15815;46.760;19.604;2022-09-09T12:34:52;0.88;;;0.25;;
28627;SDS011;15815;46.760;19.604;2022-09-09T12:39:56;0.95;;;0.30;;
28627;SDS011;15815;46.760;19.604;2022-09-09T12:44:56;3.13;;;0.40;;
28627;SDS011;15815;46.760;19.604;2022-09-09T12:47:29;2.97;;;0.40;;
28627;SDS011;15815;46.760;19.604;2022-09-09T12:50:02;3.15;;;0.55;;
28627;SDS011;15815;46.760;19.604;2022-09-09T12:55:00;0.40;;;0.20;;
28627;SDS011;15815;46.760;19.604;2022-09-09T12:57:33;1.33;;;0.40;;
28627;SDS011;15815;46.760;19.604;2022-09-09T13:00:14;1.17;;;0.35;;
28627;SDS011;15815;46.760;19.604;2022-09-09T13:02:50;0.20;;;0.20;;
28627;SDS011;15815;46.760;19.604;2022-09-09T13:05:24;0.20;;;0.20;;
28627;SDS011;15815;46.760;19.604;2022-09-09T13:07:51;0.82;;;0.30;;
28627;SDS011;15815;46.760;19.604;2022-09-09T13:10:26;1.35;;;0.50;;
28627;SDS011;15815;46.760;19.604;2022-09-09T13:12:57;2.75;;;0.50;;
28627;SDS011;15815;46.760;19.604;2022-09-09T13:15:24;0.40;;;0.38;;
28627;SDS011;15815;46.760;19.604;2022-09-09T13:17:54;0.95;;;0.60;;
28627;SDS011;15815;46.760;19.604;2022-09-09T13:20:21;1.98;;;0.70;;
28627;SDS011;15815;46.760;19.604;2022-09-09T13:22:48;0.60;;;0.50;;
28627;SDS011;15815;46.760;19.604;2022-09-09T13:25:19;0.88;;;0.40;;
28627;SDS011;15815;46.760;19.604;2022-09-09T13:27:55;0.50;;;0.38;;
28627;SDS011;15815;46.760;19.604;2022-09-09T13:30:27;1.08;;;0.40;;
28627;SDS011;15815;46.760;19.604;2022-09-09T13:33:03;6.38;;;0.55;;
28627;SDS011;15815;46.760;19.604;2022-09-09T13:35:30;4.35;;;0.60;;
28627;SDS011;15815;46.760;19.604;2022-09-09T13:37:57;0.60;;;0.35;;
28627;SDS011;15815;46.760;19.604;2022-09-09T13:40:23;0.30;;;0.25;;
28627;SDS011;15815;46.760;19.604;2022-09-09T13:42:55;1.35;;;0.60;;
28627;SDS011;15815;46.760;19.604;2022-09-09T13:45:22;0.70;;;0.43;;
28627;SDS011;15815;46.760;19.604;2022-09-09T13:47:51;1.55;;;0.40;;
28627;SDS011;15815;46.760;19.604;2022-09-09T13:50:21;3.65;;;0.60;;
28627;SDS011;15815;46.760;19.604;2022-09-09T13:52:54;1.17;;;0.40;;
28627;SDS011;15815;46.760;19.604;2022-09-09T13:55:23;0.40;;;0.40;;
28627;SDS011;15815;46.760;19.604;2022-09-09T13:57:53;1.38;;;0.40;;
28627;SDS011;15815;46.760;19.604;2022-09-09T14:00:20;1.90;;;0.20;;
28627;SDS011;15815;46.760;19.604;2022-09-09T14:02:48;0.65;;;0.43;;
28627;SDS011;15815;46.760;19.604;2022-09-09T14:05:13;0.65;;;0.50;;
28627;SDS011;15815;46.760;19.604;2022-09-09T14:07:40;1.25;;;0.38;;
28627;SDS011;15815;46.760;19.604;2022-09-09T14:10:07;1.30;;;0.70;;
28627;SDS011;15815;46.760;19.604;2022-09-09T14:12:33;2.33;;;0.65;;
28627;SDS011;15815;46.760;19.604;2022-09-09T14:14:58;3.25;;;0.50;;
28627;SDS011;15815;46.760;19.604;2022-09-09T14:17:24;1.02;;;0.40;;
28627;SDS011;15815;46.760;19.604;2022-09-09T14:19:54;1.15;;;0.40;;
28627;SDS011;15815;46.760;19.604;2022-09-09T14:22:19;1.63;;;0.40;;
28627;SDS011;15815;46.760;19.604;2022-09-09T14:24:45;0.30;;;0.30;;
28627;SDS011;15815;46.760;19.604;2022-09-09T14:27:11;0.50;;;0.30;;
28627;SDS011;15815;46.760;19.604;2022-09-09T14:29:36;0.50;;;0.43;;
28627;SDS011;15815;46.760;19.604;2022-09-09T14:32:01;0.83;;;0.50;;
28627;SDS011;15815;46.760;19.604;2022-09-09T14:34:27;2.13;;;0.28;;
28627;SDS011;15815;46.760;19.604;2022-09-09T14:36:52;3.42;;;0.50;;
28627;SDS011;15815;46.760;19.604;2022-09-09T14:39:17;4.20;;;0.60;;
28627;SDS011;15815;46.760;19.604;2022-09-09T14:41:43;0.90;;;0.40;;
28627;SDS011;15815;46.760;19.604;2022-09-09T14:44:08;0.20;;;0.20;;
28627;SDS011;15815;46.760;19.604;2022-09-09T14:46:33;1.33;;;0.43;;
28627;SDS011;15815;46.760;19.604;2022-09-09T14:48:59;1.02;;;0.30;;
28627;SDS011;15815;46.760;19.604;2022-09-09T14:51:24;1.05;;;0.40;;
28627;SDS011;15815;46.760;19.604;2022-09-09T14:53:52;1.08;;;0.30;;
28627;SDS011;15815;46.760;19.604;2022-09-09T14:58:52;0.30;;;0.30;;
28627;SDS011;15815;46.760;19.604;2022-09-09T15:01:20;1.25;;;0.30;;
28627;SDS011;15815;46.760;19.604;2022-09-09T15:03:50;0.88;;;0.38;;
28627;SDS011;15815;46.760;19.604;2022-09-09T15:08:43;5.15;;;0.57;;
28627;SDS011;15815;46.760;19.604;2022-09-09T15:11:10;8.23;;;0.90;;
28627;SDS011;15815;46.760;19.604;2022-09-09T15:13:37;11.48;;;0.88;;
28627;SDS011;15815;46.760;19.604;2022-09-09T15:18:31;2.85;;;0.77;;
28627;SDS011;15815;46.760;19.604;2022-09-09T15:20:58;17.60;;;1.48;;
28627;SDS011;15815;46.760;19.604;2022-09-09T15:23:25;188.57;;;11.75;;
28627;SDS011;15815;46.760;19.604;2022-09-09T15:25:54;1.08;;;0.38;;
28627;SDS011;15815;46.760;19.604;2022-09-09T15:28:21;2.83;;;0.50;;
28627;SDS011;15815;46.760;19.604;2022-09-09T15:30:47;4.32;;;0.40;;
28627;SDS011;15815;46.760;19.604;2022-09-09T15:33:17;1.20;;;0.60;;
28627;SDS011;15815;46.760;19.604;2022-09-09T15:35:43;1.08;;;0.30;;
28627;SDS011;15815;46.760;19.604;2022-09-09T15:38:09;0.93;;;0.40;;
28627;SDS011;15815;46.760;19.604;2022-09-09T15:40:34;4.43;;;0.50;;
28627;SDS011;15815;46.760;19.604;2022-09-09T15:43:00;1.25;;;0.70;;
28627;SDS011;15815;46.760;19.604;2022-09-09T15:45:25;0.82;;;0.40;;
28627;SDS011;15815;46.760;19.604;2022-09-09T15:47:52;2.35;;;0.52;;
28627;SDS011;15815;46.760;19.604;2022-09-09T15:50:17;0.95;;;0.30;;
28627;SDS011;15815;46.760;19.604;2022-09-09T15:52:42;1.23;;;0.40;;
28627;SDS011;15815;46.760;19.604;2022-09-09T15:55:08;1.73;;;0.20;;
28627;SDS011;15815;46.760;19.604;2022-09-09T15:57:33;1.77;;;0.50;;
28627;SDS011;15815;46.760;19.604;2022-09-09T15:59:59;1.38;;;0.40;;
28627;SDS011;15815;46.760;19.604;2022-09-09T16:02:25;3.60;;;0.38;;
28627;SDS011;15815;46.760;19.604;2022-09-09T16:04:50;1.10;;;0.22;;
28627;SDS011;15815;46.760;19.604;2022-09-09T16:07:16;2.73;;;0.40;;
28627;SDS011;15815;46.760;19.604;2022-09-09T16:09:41;0.80;;;0.37;;
28627;SDS011;15815;46.760;19.604;2022-09-09T16:12:08;1.08;;;0.50;;
28627;SDS011;15815;46.760;19.604;2022-09-09T16:14:36;0.40;;;0.22;;
28627;SDS011;15815;46.760;19.604;2022-09-09T16:17:03;2.33;;;0.57;;
28627;SDS011;15815;46.760;19.604;2022-09-09T16:19:30;1.58;;;0.30;;
28627;SDS011;15815;46.760;19.604;2022-09-09T16:21:56;7.97;;;0.90;;
28627;SDS011;15815;46.760;19.604;2022-09-09T16:24:21;2.13;;;0.57;;
28627;SDS011;15815;46.760;19.604;2022-09-09T16:26:49;3.58;;;0.75;;
28627;SDS011;15815;46.760;19.604;2022-09-09T16:29:16;2.92;;;0.60;;
28627;SDS011;15815;46.760;19.604;2022-09-09T16:31:44;3.60;;;1.17;;
28627;SDS011;15815;46.760;19.604;2022-09-09T16:34:10;4.50;;;0.55;;
28627;SDS011;15815;46.760;19.604;2022-09-09T16:36:37;0.95;;;0.43;;
28627;SDS011;15815;46.760;19.604;2022-09-09T16:39:07;1.25;;;0.50;;
28627;SDS011;15815;46.760;19.604;2022-09-09T16:41:34;0.75;;;0.40;;
28627;SDS011;15815;46.760;19.604;2022-09-09T16:44:00;0.75;;;0.32;;
28627;SDS011;15815;46.760;19.604;2022-09-09T16:46:31;1.40;;;0.50;;
28627;SDS011;15815;46.760;19.604;2022-09-09T16:48:59;0.38;;;0.30;;
28627;SDS011;15815;46.760;19.604;2022-09-09T16:53:52;2.13;;;0.50;;
28627;SDS011;15815;46.760;19.604;2022-09-09T16:56:19;0.75;;;0.55;;
28627;SDS011;15815;46.760;19.604;2022-09-09T16:58:53;1.40;;;0.40;;